Time;durP1;ratioP1;P1;durP2;ratioP2;P2;SDS_P1;SDS_P2;PMS_P1;PMS_P2;Temp;Humidity;BMP_temperature;BMP_pressure;BME280_temperature;BME280_humidity;BME280_pressure;Samples;Min_cycle;Max_cycle;Signal;HPM_P1;HPM_P2
2023/07/03 00:02:21;;;;;;;;;;;;;;;22.22;71.39;96560.34;614789;231;62887;-62
2023/07/03 00:04:49;;;;;;;;;;;;;;;22.22;71.39;96554.98;614751;231;66772;-62
2023/07/03 00:07:16;;;;;;;;;;;;;;;22.21;71.39;96562.22;614819;231;66982;-60
2023/07/03 00:09:44;;;;;;;;;;;;;;;22.21;71.41;96562.22;614801;231;65982;-60
2023/07/03 00:12:12;;;;;;;;;;;;;;;22.22;71.40;96560.34;614900;229;67459;-60
2023/07/03 00:14:39;;;;;;;;;;;;;;;22.21;71.42;96556.87;617526;230;67010;-60
2023/07/03 00:17:07;;;;;;;;;;;;;;;22.21;71.41;96550.70;617519;230;65016;-60
2023/07/03 00:19:35;;;;;;;;;;;;;;;22.20;71.45;96552.58;617453;228;67259;-60
2023/07/03 00:22:03;;;;;;;;;;;;;;;22.21;71.43;96556.05;617579;230;67174;-60
2023/07/03 00:24:31;;;;;;;;;;;;;;;22.21;71.43;96556.05;617476;230;65041;-60
2023/07/03 00:26:59;;;;;;;;;;;;;;;22.20;71.42;96549.91;617503;230;67450;-60
2023/07/03 00:29:28;;;;;;;;;;;;;;;22.20;71.42;96549.91;617519;230;66910;-60
2023/07/03 00:31:56;;;;;;;;;;;;;;;22.19;71.43;96551.00;617471;227;62936;-60
2023/07/03 00:34:24;;;;;;;;;;;;;;;22.21;71.42;96553.38;617536;230;67911;-60
2023/07/03 00:36:51;;;;;;;;;;;;;;;22.20;71.45;96549.91;617518;230;66707;-60
2023/07/03 00:39:19;;;;;;;;;;;;;;;22.20;71.43;96544.55;617512;230;62528;-60
2023/07/03 00:41:46;;;;;;;;;;;;;;;22.20;71.45;96547.23;617508;230;64902;-60
2023/07/03 00:44:15;;;;;;;;;;;;;;;22.20;71.45;96549.12;617233;230;64762;-60
2023/07/03 00:46:45;;;;;;;;;;;;;;;22.21;71.45;96554.20;617467;230;65366;-61
2023/07/03 00:49:12;;;;;;;;;;;;;;;22.20;71.43;96549.91;617491;230;66989;-60
2023/07/03 00:51:41;;;;;;;;;;;;;;;22.20;71.48;96549.91;617551;230;64334;-60
2023/07/03 00:54:09;;;;;;;;;;;;;;;22.19;71.49;96544.86;617495;230;65948;-60
2023/07/03 00:56:37;;;;;;;;;;;;;;;22.19;71.49;96551.00;617496;230;67965;-61
2023/07/03 00:59:05;;;;;;;;;;;;;;;22.20;71.47;96552.58;617507;230;67431;-60
2023/07/03 01:01:37;;;;;;;;;;;;;;;22.20;71.49;96549.12;617490;228;64883;-60
2023/07/03 01:04:05;;;;;;;;;;;;;;;22.19;71.49;96553.68;617497;230;67219;-61
2023/07/03 01:06:34;;;;;;;;;;;;;;;22.20;71.47;96557.15;617516;230;65765;-61
2023/07/03 01:09:04;;;;;;;;;;;;;;;22.19;71.47;96559.03;617428;229;62878;-63
2023/07/03 01:11:32;;;;;;;;;;;;;;;22.20;71.50;96557.15;617485;227;67263;-63
2023/07/03 01:14:01;;;;;;;;;;;;;;;22.20;71.51;96559.83;617534;229;64661;-63
2023/07/03 01:16:30;;;;;;;;;;;;;;;22.19;71.52;96561.71;617517;230;65138;-63
2023/07/03 01:18:59;;;;;;;;;;;;;;;22.19;71.51;96564.39;617512;230;66818;-61
2023/07/03 01:21:33;;;;;;;;;;;;;;;22.19;71.48;96569.73;612470;230;66748;-61
2023/07/03 01:24:04;;;;;;;;;;;;;;;22.19;71.52;96569.73;609804;229;62840;-62
2023/07/03 01:26:33;;;;;;;;;;;;;;;22.19;71.53;96569.73;617424;230;67672;-63
2023/07/03 01:29:02;;;;;;;;;;;;;;;22.19;71.54;96566.27;617538;230;67051;-63
2023/07/03 01:31:31;;;;;;;;;;;;;;;22.19;71.57;96569.73;617498;230;63543;-63
2023/07/03 01:34:00;;;;;;;;;;;;;;;22.18;71.54;96570.84;617490;230;67247;-63
2023/07/03 01:36:30;;;;;;;;;;;;;;;22.19;71.57;96577.77;617491;230;67043;-63
2023/07/03 01:39:00;;;;;;;;;;;;;;;22.19;71.56;96575.09;617528;230;64929;-61
2023/07/03 01:41:29;;;;;;;;;;;;;;;22.18;71.56;96573.52;617619;229;66936;-61
2023/07/03 01:43:56;;;;;;;;;;;;;;;22.19;71.57;96580.45;617564;230;66732;-61
2023/07/03 01:46:23;;;;;;;;;;;;;;;22.19;71.58;96574.30;617557;230;62866;-61
2023/07/03 01:48:51;;;;;;;;;;;;;;;22.19;71.58;96576.98;617532;230;64661;-61
2023/07/03 01:51:24;;;;;;;;;;;;;;;22.19;71.59;96574.30;617528;230;66677;-61
2023/07/03 01:53:53;;;;;;;;;;;;;;;22.18;71.59;96573.52;617606;230;65987;-61
2023/07/03 01:56:28;;;;;;;;;;;;;;;22.18;71.60;96576.19;617464;229;64622;-61
2023/07/03 01:58:57;;;;;;;;;;;;;;;22.20;71.58;96581.23;617554;230;66802;-61
2023/07/03 02:01:26;;;;;;;;;;;;;;;22.19;71.60;96577.77;617464;229;65186;-61
2023/07/03 02:04:01;;;;;;;;;;;;;;;22.18;71.60;96589.57;617545;230;65661;-62
2023/07/03 02:06:33;;;;;;;;;;;;;;;22.19;71.59;96579.66;617487;230;67002;-61
2023/07/03 02:09:01;;;;;;;;;;;;;;;22.18;71.62;96589.57;617387;227;65264;-61
2023/07/03 02:11:30;;;;;;;;;;;;;;;22.18;71.62;96584.22;617523;229;44586;-61
2023/07/03 02:13:59;;;;;;;;;;;;;;;22.17;71.60;96587.93;615253;229;66059;-61
2023/07/03 02:16:29;;;;;;;;;;;;;;;22.18;71.60;96584.22;614768;231;63606;-61
2023/07/03 02:18:58;;;;;;;;;;;;;;;22.18;71.60;96592.25;614796;231;64583;-61
2023/07/03 02:21:27;;;;;;;;;;;;;;;22.18;71.64;96589.57;614775;231;67186;-61
2023/07/03 02:23:54;;;;;;;;;;;;;;;22.18;71.62;96594.92;614831;231;62921;-61
2023/07/03 02:26:22;;;;;;;;;;;;;;;22.17;71.65;96594.08;614767;231;65908;-61
2023/07/03 02:28:50;;;;;;;;;;;;;;;22.17;71.62;96594.08;614756;231;67027;-61
2023/07/03 02:31:17;;;;;;;;;;;;;;;22.17;71.65;96588.72;614811;231;66128;-61
2023/07/03 02:33:45;;;;;;;;;;;;;;;22.17;71.65;96594.08;614776;231;64510;-63
2023/07/03 02:36:13;;;;;;;;;;;;;;;22.17;71.66;96590.61;614834;231;67188;-63
2023/07/03 02:38:42;;;;;;;;;;;;;;;22.17;71.63;96596.75;614771;231;43795;-63
2023/07/03 02:41:09;;;;;;;;;;;;;;;22.17;71.68;96594.08;614765;231;67372;-62
2023/07/03 02:43:37;;;;;;;;;;;;;;;22.17;71.67;96596.75;614767;231;66997;-63
2023/07/03 02:46:05;;;;;;;;;;;;;;;22.17;71.67;96599.42;614793;231;62587;-63
2023/07/03 02:48:33;;;;;;;;;;;;;;;22.18;71.65;96605.62;614817;231;67763;-63
2023/07/03 02:51:00;;;;;;;;;;;;;;;22.16;71.67;96602.41;614789;231;66973;-62
2023/07/03 02:53:28;;;;;;;;;;;;;;;22.17;71.66;96603.98;614766;231;62544;-61
2023/07/03 02:55:57;;;;;;;;;;;;;;;22.17;71.66;96607.45;614634;231;44450;-61
2023/07/03 02:58:25;;;;;;;;;;;;;;;22.16;71.68;96605.88;614625;231;67461;-59
2023/07/03 03:00:56;;;;;;;;;;;;;;;22.17;71.67;96601.31;614773;231;65773;-59
2023/07/03 03:03:25;;;;;;;;;;;;;;;22.17;71.67;96604.78;614642;231;65628;-61
2023/07/03 03:05:52;;;;;;;;;;;;;;;22.16;71.69;96605.88;614539;231;66901;-60
2023/07/03 03:08:21;;;;;;;;;;;;;;;22.16;71.72;96603.20;614754;231;62648;-60
2023/07/03 03:10:49;;;;;;;;;;;;;;;22.16;71.74;96608.55;614785;231;66917;-60
2023/07/03 03:13:17;;;;;;;;;;;;;;;22.16;71.73;96603.20;616149;229;67517;-60
2023/07/03 03:15:45;;;;;;;;;;;;;;;22.16;71.68;96607.76;617579;230;64003;-60
2023/07/03 03:18:12;;;;;;;;;;;;;;;22.17;71.69;96614.69;617513;230;67036;-60
2023/07/03 03:20:40;;;;;;;;;;;;;;;22.16;71.72;96613.91;617514;230;64603;-60
2023/07/03 03:23:07;;;;;;;;;;;;;;;22.17;71.75;96614.69;617532;230;65290;-60
2023/07/03 03:25:35;;;;;;;;;;;;;;;22.17;71.74;96620.84;617497;230;67209;-60
2023/07/03 03:28:03;;;;;;;;;;;;;;;22.16;71.76;96616.58;617552;230;67327;-61
2023/07/03 03:30:31;;;;;;;;;;;;;;;22.16;71.73;96621.14;617509;228;63013;-60
2023/07/03 03:32:58;;;;;;;;;;;;;;;22.16;71.74;96621.14;617514;230;67295;-60
2023/07/03 03:35:26;;;;;;;;;;;;;;;22.16;71.72;96618.47;617486;230;64323;-60
2023/07/03 03:37:53;;;;;;;;;;;;;;;22.16;71.78;96618.47;617518;230;62734;-60
2023/07/03 03:40:21;;;;;;;;;;;;;;;22.16;71.77;96613.91;617562;230;67705;-60
2023/07/03 03:42:50;;;;;;;;;;;;;;;22.16;71.77;96618.47;617501;230;64580;-61
2023/07/03 03:45:18;;;;;;;;;;;;;;;22.15;71.77;96615.00;617529;230;63015;-61
2023/07/03 03:47:48;;;;;;;;;;;;;;;22.16;71.77;96613.11;617465;227;67425;-61
2023/07/03 03:50:15;;;;;;;;;;;;;;;22.16;71.77;96615.79;617531;230;67758;-61
2023/07/03 03:52:43;;;;;;;;;;;;;;;22.15;71.77;96617.67;617512;230;62678;-61
2023/07/03 03:55:11;;;;;;;;;;;;;;;22.15;71.78;96619.53;617563;229;65371;-61
2023/07/03 03:57:38;;;;;;;;;;;;;;;22.16;71.78;96618.47;617480;230;66930;-61
2023/07/03 04:00:15;;;;;;;;;;;;;;;22.16;71.78;96619.25;617533;230;64862;-61
2023/07/03 04:02:37;;;;;;;;;;;;;;;22.15;71.77;96614.17;617360;229;47239;-61
2023/07/03 04:05:05;;;;;;;;;;;;;;;22.15;71.80;96616.85;617508;230;65079;-61
2023/07/03 04:07:32;;;;;;;;;;;;;;;22.15;71.78;96611.50;617561;230;64996;-61
2023/07/03 04:10:00;;;;;;;;;;;;;;;22.16;71.81;96618.47;617550;230;67121;-61
2023/07/03 04:12:29;;;;;;;;;;;;;;;22.15;71.79;96627.55;616890;229;67085;-61
2023/07/03 04:14:56;;;;;;;;;;;;;;;22.15;71.79;96628.38;614761;231;64950;-61
2023/07/03 04:17:23;;;;;;;;;;;;;;;22.15;71.80;96627.55;614789;231;67217;-61
2023/07/03 04:19:51;;;;;;;;;;;;;;;22.15;71.83;96633.73;614797;231;65065;-61
2023/07/03 04:22:18;;;;;;;;;;;;;;;22.15;71.80;96639.08;614773;231;62886;-61
2023/07/03 04:24:46;;;;;;;;;;;;;;;22.15;71.82;96627.55;614765;231;67177;-61
2023/07/03 04:27:14;;;;;;;;;;;;;;;22.15;71.84;96635.59;614775;231;66950;-61
2023/07/03 04:29:42;;;;;;;;;;;;;;;22.15;71.83;96638.27;614772;231;65104;-61
2023/07/03 04:32:09;;;;;;;;;;;;;;;22.15;71.82;96640.94;614805;231;65642;-61
2023/07/03 04:34:37;;;;;;;;;;;;;;;22.14;71.83;96637.47;614806;231;64630;-61
2023/07/03 04:37:05;;;;;;;;;;;;;;;22.15;71.83;96646.30;614749;231;62884;-61
2023/07/03 04:39:32;;;;;;;;;;;;;;;22.15;71.84;96640.94;614763;229;67034;-61
2023/07/03 04:42:00;;;;;;;;;;;;;;;22.15;71.87;96646.30;614741;231;67418;-61
2023/07/03 04:44:28;;;;;;;;;;;;;;;22.15;71.87;96643.61;614808;231;62708;-61
2023/07/03 04:46:55;;;;;;;;;;;;;;;22.14;71.87;96650.86;614756;231;64947;-61
2023/07/03 04:49:29;;;;;;;;;;;;;;;22.15;71.89;96643.61;614773;231;64775;-61
2023/07/03 04:51:54;;;;;;;;;;;;;;;22.15;71.88;96647.11;614473;231;62995;-61
2023/07/03 04:54:22;;;;;;;;;;;;;;;22.14;71.85;96653.53;614759;231;67229;-61
2023/07/03 04:56:49;;;;;;;;;;;;;;;22.14;71.87;96647.39;614810;231;67133;-61
2023/07/03 04:59:17;;;;;;;;;;;;;;;22.14;71.92;96652.73;614778;231;64846;-61
2023/07/03 05:01:44;;;;;;;;;;;;;;;22.14;71.90;96653.53;614755;231;66786;-61
2023/07/03 05:04:12;;;;;;;;;;;;;;;22.14;71.92;96652.73;614774;231;64876;-61
2023/07/03 05:06:40;;;;;;;;;;;;;;;22.15;71.92;96654.32;614748;231;63008;-61
2023/07/03 05:09:08;;;;;;;;;;;;;;;22.15;71.90;96659.67;614786;231;65309;-61
2023/07/03 05:11:35;;;;;;;;;;;;;;;22.14;71.92;96664.23;614737;231;67065;-61
2023/07/03 05:14:03;;;;;;;;;;;;;;;22.14;71.93;96658.09;614731;229;63040;-61
2023/07/03 05:16:30;;;;;;;;;;;;;;;22.14;71.93;96658.09;614752;231;64924;-61
2023/07/03 05:18:58;;;;;;;;;;;;;;;22.14;71.95;96658.09;614791;231;64960;-61
2023/07/03 05:21:25;;;;;;;;;;;;;;;22.14;71.97;96658.88;614848;231;65060;-63
2023/07/03 05:23:53;;;;;;;;;;;;;;;22.14;71.97;96660.77;614779;231;67045;-61
2023/07/03 05:26:20;;;;;;;;;;;;;;;22.14;71.98;96660.77;614782;231;66954;-61
2023/07/03 05:28:48;;;;;;;;;;;;;;;22.13;71.97;96654.63;614790;231;64887;-61
2023/07/03 05:31:15;;;;;;;;;;;;;;;22.14;72.00;96652.73;614648;231;67189;-61
2023/07/03 05:33:43;;;;;;;;;;;;;;;22.13;71.95;96654.63;614785;231;64871;-61
2023/07/03 05:36:10;;;;;;;;;;;;;;;22.13;71.99;96656.51;614834;231;62904;-61
2023/07/03 05:38:37;;;;;;;;;;;;;;;22.14;71.99;96655.41;614789;231;64971;-61
2023/07/03 05:41:05;;;;;;;;;;;;;;;22.13;72.00;96657.30;614776;228;67063;-61
2023/07/03 05:43:33;;;;;;;;;;;;;;;22.14;71.99;96652.73;614804;231;63007;-61
2023/07/03 05:46:00;;;;;;;;;;;;;;;22.14;72.02;96655.41;614802;231;64809;-61
2023/07/03 05:48:28;;;;;;;;;;;;;;;22.14;72.01;96650.06;614795;231;64340;-61
2023/07/03 05:50:55;;;;;;;;;;;;;;;22.13;72.02;96651.95;614777;231;62887;-61
2023/07/03 05:53:22;;;;;;;;;;;;;;;22.13;72.03;96659.19;614727;231;64766;-63
2023/07/03 05:55:55;;;;;;;;;;;;;;;22.13;72.00;96648.48;614745;231;67043;-64
2023/07/03 05:58:22;;;;;;;;;;;;;;;22.13;72.04;96651.16;614555;231;65056;-65
2023/07/03 06:00:51;;;;;;;;;;;;;;;22.13;72.01;96651.95;614856;231;66850;-66
2023/07/03 06:03:19;;;;;;;;;;;;;;;22.13;72.00;96651.16;614234;228;66785;-63
2023/07/03 06:05:46;;;;;;;;;;;;;;;22.13;72.10;96643.92;614798;231;64868;-63
2023/07/03 06:08:14;;;;;;;;;;;;;;;22.14;72.13;96658.09;614801;231;64690;-62
2023/07/03 06:10:41;;;;;;;;;;;;;;;22.13;72.21;96653.84;614780;231;65697;-63
2023/07/03 06:13:09;;;;;;;;;;;;;;;22.14;71.98;96658.88;614811;229;62634;-62
2023/07/03 06:15:36;;;;;;;;;;;;;;;22.22;72.03;96657.48;614768;231;66827;-62
2023/07/03 06:18:05;;;;;;;;;;;;;;;22.20;71.42;96656.97;614657;231;67055;-60
2023/07/03 06:20:33;;;;;;;;;;;;;;;22.18;71.82;96661.83;614732;231;65124;-60
2023/07/03 06:23:01;;;;;;;;;;;;;;;22.23;71.47;96663.63;614767;231;65218;-60
2023/07/03 06:25:28;;;;;;;;;;;;;;;22.21;71.65;96669.28;614784;231;64943;-60
2023/07/03 06:27:55;;;;;;;;;;;;;;;22.20;72.17;96665.00;614082;231;65017;-61
2023/07/03 06:30:23;;;;;;;;;;;;;;;22.19;72.26;96667.98;614718;231;67338;-62
2023/07/03 06:32:50;;;;;;;;;;;;;;;22.21;72.42;96671.96;614779;231;67053;-63
2023/07/03 06:35:19;;;;;;;;;;;;;;;22.22;72.93;96672.75;614589;231;65176;-61
2023/07/03 06:37:46;;;;;;;;;;;;;;;22.21;72.57;96669.28;614604;231;64998;-63
2023/07/03 06:40:15;;;;;;;;;;;;;;;22.20;73.04;96673.02;614689;231;64943;-62
2023/07/03 06:42:43;;;;;;;;;;;;;;;22.20;72.99;96673.02;614785;228;64919;-62
2023/07/03 06:45:12;;;;;;;;;;;;;;;22.22;72.56;96673.55;614909;230;44321;-61
2023/07/03 06:47:40;;;;;;;;;;;;;;;22.22;72.82;96672.75;614961;230;64914;-61
2023/07/03 06:50:08;;;;;;;;;;;;;;;22.20;72.94;96673.02;614941;230;62956;-61
2023/07/03 06:52:36;;;;;;;;;;;;;;;22.22;73.02;96670.08;615141;230;67223;-63
2023/07/03 06:55:04;;;;;;;;;;;;;;;22.21;73.04;96669.28;615115;230;67040;-63
2023/07/03 06:57:34;;;;;;;;;;;;;;;22.21;72.71;96663.94;614845;230;64955;-62
2023/07/03 07:00:01;;;;;;;;;;;;;;;22.22;72.91;96668.19;615037;230;64896;-62
2023/07/03 07:02:29;;;;;;;;;;;;;;;22.22;73.00;96670.87;615081;230;66800;-63
2023/07/03 07:04:56;;;;;;;;;;;;;;;22.23;72.96;96666.30;602786;230;61928;-62
2023/07/03 07:07:24;;;;;;;;;;;;;;;22.28;73.07;96663.56;615087;230;67308;-62
2023/07/03 07:09:51;;;;;;;;;;;;;;;22.29;72.47;96668.65;614970;230;67247;-63
2023/07/03 07:12:19;;;;;;;;;;;;;;;22.28;72.54;96672.39;615505;229;65241;-62
2023/07/03 07:14:46;;;;;;;;;;;;;;;22.27;72.47;96670.02;619576;229;64816;-63
2023/07/03 07:17:14;;;;;;;;;;;;;;;22.27;72.46;96678.84;619494;229;67002;-62
2023/07/03 07:19:43;;;;;;;;;;;;;;;22.26;72.66;96668.41;619608;229;65017;-62
2023/07/03 07:22:10;;;;;;;;;;;;;;;22.25;72.83;96670.30;619572;229;67243;-63
2023/07/03 07:24:38;;;;;;;;;;;;;;;22.25;72.95;96674.85;619520;229;66977;-62
2023/07/03 07:27:05;;;;;;;;;;;;;;;22.26;73.03;96679.11;619483;229;65128;-62
2023/07/03 07:29:34;;;;;;;;;;;;;;;22.26;73.05;96677.25;619575;229;67015;-62
2023/07/03 07:32:03;;;;;;;;;;;;;;;22.26;73.01;96679.93;619526;229;66838;-63
2023/07/03 07:34:31;;;;;;;;;;;;;;;22.25;73.01;96675.64;615545;229;68347;-62
2023/07/03 07:36:59;;;;;;;;;;;;;;;22.26;73.00;96671.91;619554;227;65869;-62
2023/07/03 07:39:26;;;;;;;;;;;;;;;22.25;72.95;96669.50;619503;229;67069;-61
2023/07/03 07:41:56;;;;;;;;;;;;;;;22.25;72.96;96672.97;619535;229;63031;-62
2023/07/03 07:44:23;;;;;;;;;;;;;;;22.29;72.15;96679.36;619635;229;67232;-62
2023/07/03 07:46:51;;;;;;;;;;;;;;;22.28;72.44;96674.27;619509;229;67096;-61
2023/07/03 07:49:18;;;;;;;;;;;;;;;22.33;72.31;96676.89;619566;229;65123;-62
2023/07/03 07:51:46;;;;;;;;;;;;;;;22.33;72.40;96676.89;619569;229;67172;-61
2023/07/03 07:54:13;;;;;;;;;;;;;;;22.31;72.63;96677.16;619511;229;68154;-62
2023/07/03 07:56:41;;;;;;;;;;;;;;;22.31;72.60;96682.52;619623;229;65032;-62
2023/07/03 07:59:08;;;;;;;;;;;;;;;22.30;72.77;96682.82;619554;229;67236;-61
2023/07/03 08:01:36;;;;;;;;;;;;;;;22.30;72.81;96688.17;619535;229;64954;-63
2023/07/03 08:04:04;;;;;;;;;;;;;;;22.29;72.96;96691.92;619448;229;65247;-63
2023/07/03 08:06:32;;;;;;;;;;;;;;;22.28;73.06;96691.13;619602;229;67277;-63
2023/07/03 08:08:59;;;;;;;;;;;;;;;22.29;73.06;96692.73;619530;229;66373;-63
2023/07/03 08:11:30;;;;;;;;;;;;;;;22.29;72.93;96692.73;619626;229;65066;-62
2023/07/03 08:13:56;;;;;;;;;;;;;;;22.29;72.62;96692.73;617740;229;67260;-62
2023/07/03 08:16:24;;;;;;;;;;;;;;;22.29;72.93;96698.09;617472;230;66698;-63
2023/07/03 08:18:53;;;;;;;;;;;;;;;22.29;72.95;96697.27;617421;227;47891;-62
2023/07/03 08:21:20;;;;;;;;;;;;;;;22.28;72.95;96699.16;617361;227;64881;-63
2023/07/03 08:23:48;;;;;;;;;;;;;;;22.29;73.02;96703.45;617143;230;67323;-62
2023/07/03 08:26:19;;;;;;;;;;;;;;;22.29;72.96;96711.48;617418;230;63808;-63
2023/07/03 08:28:47;;;;;;;;;;;;;;;22.29;72.85;96714.16;617365;230;64820;-63
2023/07/03 08:31:18;;;;;;;;;;;;;;;22.30;72.83;96710.38;615083;230;66331;-63
2023/07/03 08:33:45;;;;;;;;;;;;;;;22.31;72.79;96711.17;606779;230;64672;-62
2023/07/03 08:36:13;;;;;;;;;;;;;;;22.30;72.85;96699.67;617424;230;66964;-62
2023/07/03 08:38:40;;;;;;;;;;;;;;;22.31;72.86;96703.14;618431;227;67023;-62
2023/07/03 08:41:10;;;;;;;;;;;;;;;22.30;72.82;96712.27;617480;230;62841;-62
2023/07/03 08:43:39;;;;;;;;;;;;;;;22.30;72.74;96710.38;617382;230;64727;-62
2023/07/03 08:46:07;;;;;;;;;;;;;;;22.30;72.85;96713.06;617425;230;67035;-63
2023/07/03 08:48:36;;;;;;;;;;;;;;;22.30;72.94;96714.95;617408;228;61934;-61
2023/07/03 08:51:05;;;;;;;;;;;;;;;22.30;72.81;96707.70;617449;230;67209;-61
2023/07/03 08:53:37;;;;;;;;;;;;;;;22.31;72.49;96705.82;617984;227;67029;-61
2023/07/03 08:56:09;;;;;;;;;;;;;;;22.31;72.59;96711.97;620234;227;64991;-61
2023/07/03 08:58:36;;;;;;;;;;;;;;;22.32;72.31;96716.26;620681;227;67228;-60
2023/07/03 09:01:08;;;;;;;;;;;;;;;22.32;72.25;96721.61;621266;227;64886;-60
2023/07/03 09:03:52;;;;;;;;;;;;;;;22.32;72.56;96708.23;621187;226;67484;-60
2023/07/03 09:06:25;;;;;;;;;;;;;;;22.31;72.48;96706.61;621288;227;45763;-60
2023/07/03 09:08:54;;;;;;;;;;;;;;;22.32;72.42;96710.91;622835;227;66978;-61
2023/07/03 09:11:23;;;;;;;;;;;;;;;22.32;72.29;96708.23;624543;227;64970;-61
2023/07/03 09:13:52;;;;;;;;;;;;;;;22.35;71.98;96704.97;624489;227;65000;-62
2023/07/03 09:16:23;;;;;;;;;;;;;;;22.36;72.39;96709.23;624563;227;68205;-60
2023/07/03 09:18:59;;;;;;;;;;;;;;;22.38;72.34;96709.75;624580;227;65071;-60
2023/07/03 09:21:28;;;;;;;;;;;;;;;22.39;71.97;96714.01;624599;227;64964;-60
2023/07/03 09:23:57;;;;;;;;;;;;;;;22.41;71.52;96708.37;624504;227;67070;-60
2023/07/03 09:26:26;;;;;;;;;;;;;;;22.42;71.56;96704.61;624404;225;62940;-60
2023/07/03 09:29:00;;;;;;;;;;;;;;;22.43;71.65;96713.45;624351;225;67205;-61
2023/07/03 09:31:26;;;;;;;;;;;;;;;22.45;71.81;96714.73;624434;225;64489;-61
2023/07/03 09:33:54;;;;;;;;;;;;;;;22.45;71.88;96716.63;624330;225;65031;-61
2023/07/03 09:36:26;;;;;;;;;;;;;;;22.45;71.96;96712.06;624496;227;67268;-61
2023/07/03 09:38:54;;;;;;;;;;;;;;;22.47;71.94;96714.46;624506;227;67336;-60
2023/07/03 09:41:29;;;;;;;;;;;;;;;22.46;71.94;96716.34;624471;227;65069;-60
2023/07/03 09:43:57;;;;;;;;;;;;;;;22.47;72.02;96717.14;624457;227;64865;-61
2023/07/03 09:46:24;;;;;;;;;;;;;;;22.47;72.02;96725.97;624479;227;64932;-61
2023/07/03 09:48:52;;;;;;;;;;;;;;;22.48;71.97;96724.08;624530;227;65135;-61
2023/07/03 09:51:27;;;;;;;;;;;;;;;22.47;72.02;96723.29;624486;227;67221;-61
2023/07/03 09:53:56;;;;;;;;;;;;;;;22.48;71.90;96722.22;624526;227;64715;-61
2023/07/03 09:56:25;;;;;;;;;;;;;;;22.49;71.84;96723.80;624573;227;65049;-61
2023/07/03 09:58:55;;;;;;;;;;;;;;;22.49;71.89;96723.80;624589;227;64434;-62
2023/07/03 10:01:24;;;;;;;;;;;;;;;22.50;71.98;96720.03;624588;227;66778;-62
2023/07/03 10:03:54;;;;;;;;;;;;;;;22.50;71.92;96720.03;624560;227;65221;-61
2023/07/03 10:06:21;;;;;;;;;;;;;;;22.51;71.80;96731.56;622560;227;67025;-61
2023/07/03 10:08:50;;;;;;;;;;;;;;;22.50;71.88;96717.35;624521;227;66797;-61
2023/07/03 10:11:25;;;;;;;;;;;;;;;22.51;71.81;96718.97;624481;227;62987;-61
2023/07/03 10:13:52;;;;;;;;;;;;;;;22.52;71.85;96719.76;624479;225;64647;-61
2023/07/03 10:16:21;;;;;;;;;;;;;;;22.52;71.87;96719.76;624502;227;67550;-61
2023/07/03 10:18:51;;;;;;;;;;;;;;;22.51;71.83;96724.33;623811;227;62965;-61
2023/07/03 10:21:20;;;;;;;;;;;;;;;22.51;71.78;96723.53;622902;227;65029;-61
2023/07/03 10:23:48;;;;;;;;;;;;;;;22.49;71.98;96713.09;618355;227;67156;-61
2023/07/03 10:26:23;;;;;;;;;;;;;;;22.48;71.95;96716.05;624129;227;65234;-62
2023/07/03 10:29:06;;;;;;;;;;;;;;;22.46;72.01;96721.70;624051;227;64981;-62
2023/07/03 10:31:38;;;;;;;;;;;;;;;22.46;71.89;96712.88;623995;227;64822;-60
2023/07/03 10:34:07;;;;;;;;;;;;;;;22.47;72.12;96717.14;624107;227;65112;-60
2023/07/03 10:36:36;;;;;;;;;;;;;;;22.46;71.71;96726.27;624092;227;67258;-60
2023/07/03 10:39:05;;;;;;;;;;;;;;;22.46;70.75;96720.91;624165;227;67095;-60
2023/07/03 10:41:44;;;;;;;;;;;;;;;22.46;71.56;96720.91;624261;227;65125;-61
2023/07/03 10:44:13;;;;;;;;;;;;;;;22.45;71.56;96722.77;624028;227;64736;-60
2023/07/03 10:46:48;;;;;;;;;;;;;;;22.46;71.41;96726.27;624173;227;64696;-59
2023/07/03 10:49:20;;;;;;;;;;;;;;;22.45;71.54;96716.63;624182;227;63008;-60
2023/07/03 10:51:52;;;;;;;;;;;;;;;22.45;71.58;96724.66;623898;227;64984;-60
2023/07/03 10:54:19;;;;;;;;;;;;;;;22.45;71.43;96728.12;623959;227;67188;-61
2023/07/03 10:56:48;;;;;;;;;;;;;;;22.45;71.26;96727.34;624211;227;65778;-61
2023/07/03 10:59:23;;;;;;;;;;;;;;;22.45;71.33;96725.45;624069;227;67102;-61
2023/07/03 11:02:08;;;;;;;;;;;;;;;22.45;71.31;96719.30;624121;227;66991;-61
2023/07/03 11:04:47;;;;;;;;;;;;;;;22.45;71.07;96711.27;623347;227;63006;-62
2023/07/03 11:07:34;;;;;;;;;;;;;;;22.45;71.22;96721.98;624529;227;67096;-61
2023/07/03 11:10:02;;;;;;;;;;;;;;;22.45;71.33;96725.45;624455;225;65003;-61
2023/07/03 11:12:32;;;;;;;;;;;;;;;22.44;71.06;96723.08;624842;225;63007;-61
2023/07/03 11:15:19;;;;;;;;;;;;;;;22.45;70.71;96711.27;626858;226;66742;-60
2023/07/03 11:17:48;;;;;;;;;;;;;;;22.45;70.98;96721.98;626807;226;64901;-60
2023/07/03 11:20:17;;;;;;;;;;;;;;;22.45;70.77;96721.98;625849;226;63811;-60
2023/07/03 11:22:51;;;;;;;;;;;;;;;22.45;71.08;96721.98;626799;226;68302;-60
2023/07/03 11:25:23;;;;;;;;;;;;;;;22.45;71.04;96724.66;626638;225;64905;-60
2023/07/03 11:27:58;;;;;;;;;;;;;;;22.45;71.13;96711.27;626699;225;65067;-60
2023/07/03 11:30:26;;;;;;;;;;;;;;;22.45;71.01;96712.06;626645;225;67126;-60
2023/07/03 11:32:54;;;;;;;;;;;;;;;22.45;70.26;96703.23;626852;226;65857;-60
2023/07/03 11:35:22;;;;;;;;;;;;;;;22.45;70.29;96712.06;626792;226;65007;-60
2023/07/03 11:37:51;;;;;;;;;;;;;;;22.46;70.93;96710.20;626508;226;67207;-60
2023/07/03 11:40:35;;;;;;;;;;;;;;;22.45;70.35;96706.70;625732;226;68733;-60
2023/07/03 11:43:20;;;;;;;;;;;;;;;22.46;70.04;96707.53;626816;226;65075;-60
2023/07/03 11:45:51;;;;;;;;;;;;;;;22.46;70.21;96704.84;626784;226;64799;-60
2023/07/03 11:48:36;;;;;;;;;;;;;;;22.45;70.68;96706.70;626406;225;64918;-60
2023/07/03 11:51:08;;;;;;;;;;;;;;;22.46;70.64;96710.20;626519;225;65155;-60
2023/07/03 11:53:37;;;;;;;;;;;;;;;22.45;70.55;96716.63;626640;225;64954;-60
2023/07/03 11:56:05;;;;;;;;;;;;;;;22.44;70.68;96705.12;626655;226;66883;-60
2023/07/03 11:58:34;;;;;;;;;;;;;;;22.45;70.87;96708.59;626666;226;64989;-60
2023/07/03 12:01:19;;;;;;;;;;;;;;;22.45;70.04;96703.23;626834;226;67041;-60
2023/07/03 12:03:57;;;;;;;;;;;;;;;22.45;70.03;96706.70;626791;226;66851;-60
2023/07/03 12:06:41;;;;;;;;;;;;;;;22.46;70.90;96696.81;626833;226;65289;-60
2023/07/03 12:09:25;;;;;;;;;;;;;;;22.46;69.97;96696.81;626768;226;65083;-60
2023/07/03 12:12:03;;;;;;;;;;;;;;;22.47;70.96;96698.39;626787;226;67528;-61
2023/07/03 12:14:46;;;;;;;;;;;;;;;22.47;71.05;96698.39;626828;226;62704;-60
2023/07/03 12:17:18;;;;;;;;;;;;;;;22.45;70.56;96695.20;626802;226;64826;-59
2023/07/03 12:19:46;;;;;;;;;;;;;;;22.45;70.51;96690.64;626835;226;64921;-60
2023/07/03 12:22:18;;;;;;;;;;;;;;;22.47;70.32;96698.39;626846;226;63140;-60
2023/07/03 12:24:46;;;;;;;;;;;;;;;22.46;70.05;96702.17;626827;226;65288;-60
2023/07/03 12:27:14;;;;;;;;;;;;;;;22.50;70.63;96705.85;626779;226;64912;-62
2023/07/03 12:29:46;;;;;;;;;;;;;;;22.49;71.31;96706.95;626821;226;65044;-62
2023/07/03 12:32:14;;;;;;;;;;;;;;;22.48;71.03;96703.48;626727;226;66971;-61
2023/07/03 12:34:43;;;;;;;;;;;;;;;22.47;70.72;96701.87;626523;225;65018;-61
2023/07/03 12:37:19;;;;;;;;;;;;;;;22.48;69.28;96697.30;626802;226;63792;-60
2023/07/03 12:39:47;;;;;;;;;;;;;;;22.51;69.18;96700.22;626773;226;67423;-59
2023/07/03 12:42:16;;;;;;;;;;;;;;;22.53;70.21;96707.95;626783;226;64848;-59
2023/07/03 12:44:44;;;;;;;;;;;;;;;22.51;69.99;96700.22;626729;225;64774;-60
2023/07/03 12:47:13;;;;;;;;;;;;;;;22.50;69.15;96701.28;626853;226;67083;-60
2023/07/03 12:49:48;;;;;;;;;;;;;;;22.51;68.75;96696.75;626847;226;68275;-60
2023/07/03 12:52:15;;;;;;;;;;;;;;;22.51;68.52;96697.55;626611;225;65030;-60
2023/07/03 12:54:43;;;;;;;;;;;;;;;22.51;68.50;96699.43;626849;226;67184;-60
2023/07/03 12:57:11;;;;;;;;;;;;;;;22.52;68.63;96690.30;626829;226;67038;-60
2023/07/03 12:59:39;;;;;;;;;;;;;;;22.52;68.91;96690.30;626777;226;62915;-60